LiveATC.Net - Listen to live air traffic control over the Internet!


ICAO: KRNT  IATA: RNT   Airport: Renton Municipal Airport
City: Renton   State/Province: Washington
Country: United States   Continent: North America
KRNT METAR Weather: KRNT 250253Z 35008KT 8SM CLR 26/14 A3001 RMK AO2 SLP166 T02610144 56004
KRNT Flight Activity (FlightAware)
KRNT Webcam:  (Airport Webcams) (Direct) 
KRNT Airport Info   (iFlightPlanner)
KRNT VFR Sectional Chart   (iFlightPlanner) 
KRNT IFR Low Chart   (iFlightPlanner) 

KRNT Gnd/Twr/Unicom
Feed Status: UP   Listeners: 3
Listen in your browser - HTML5 player (in browser, HTML5)
Click here to listen with your own player (launches your MP3 player)
Archive Access: KRNT Gnd/Twr/Unicom
FacilityFrequency
AirO Unicom122.950
ProFlight Unicom122.850
Renton Ground121.600
Renton Tower124.700

NOTICE

Unauthorized use prohibited. See LiveATC.net Terms of Service


Airport/ARTCC Code
Frequency Search
(e.g., 124.400, 128.75)
Site-wide search
 


Browse Feeds
Top 50 Feeds
HF Oceanic Feeds
Coverage Map
Bad Weather Areas

LiveATC FAQ
Offer LiveATC feed
Contact LiveATC.net
Press Inquiries

LiveATC on iPhone
LiveATC on Android

Windows Phone
Windows 8/10

LiveATC Mobile
(Mobile browser)

ATC Audio Archives
Interesting Recordings

LiveATC Forums


Home Page
About LiveATC.net
Make a Donation
Terms of Use
Privacy Policy

Canadian Air Freqs

AIRMETs/SIGMETs

FAA Airport Status
NAS Status
Arrival Demand


Server Software By:
Icecast.org
Liquidsoap